createdAt,value
2018-09-13T00:01:04.125Z,14.80
2018-09-13T00:03:32.498Z,14.80
2018-09-13T00:06:00.910Z,14.90
2018-09-13T00:08:29.108Z,14.90
2018-09-13T00:10:57.392Z,14.90
2018-09-13T00:13:25.741Z,14.80
2018-09-13T00:15:54.021Z,14.90
2018-09-13T00:18:22.300Z,14.90
2018-09-13T00:20:50.636Z,14.90
2018-09-13T00:23:18.917Z,14.90
2018-09-13T00:25:47.452Z,14.80
2018-09-13T00:28:16.137Z,14.70
2018-09-13T00:30:44.436Z,14.70
2018-09-13T00:33:12.949Z,14.70
2018-09-13T00:35:41.393Z,14.70
2018-09-13T00:38:09.726Z,14.80
2018-09-13T00:40:38.150Z,14.70
2018-09-13T00:43:06.742Z,14.70
2018-09-13T00:45:35.013Z,14.60
2018-09-13T00:48:03.316Z,14.70
2018-09-13T00:50:31.898Z,14.50
2018-09-13T00:53:00.176Z,14.40
2018-09-13T00:55:28.464Z,14.40
2018-09-13T00:57:56.779Z,14.30
2018-09-13T01:00:25.100Z,14.30
2018-09-13T01:02:53.481Z,14.20
2018-09-13T01:05:21.816Z,14.20
2018-09-13T01:07:50.105Z,14.30
2018-09-13T01:10:18.393Z,14.30
2018-09-13T01:12:46.748Z,14.30
2018-09-13T01:15:15.037Z,14.30
2018-09-13T01:17:43.448Z,14.30
2018-09-13T01:20:11.772Z,14.40
2018-09-13T01:22:40.256Z,14.40
2018-09-13T01:25:08.651Z,14.40
2018-09-13T01:27:37.050Z,14.40
2018-09-13T01:30:05.388Z,14.40
2018-09-13T01:32:33.720Z,14.40
2018-09-13T01:35:02.016Z,14.40
2018-09-13T01:37:30.306Z,14.40
2018-09-13T01:39:58.584Z,14.30
2018-09-13T01:42:26.880Z,14.30
2018-09-13T01:44:55.177Z,14.30
2018-09-13T01:47:23.473Z,14.30
2018-09-13T01:49:51.810Z,14.30
2018-09-13T01:52:20.092Z,14.30
2018-09-13T01:54:48.440Z,14.30
2018-09-13T01:57:16.742Z,14.40
2018-09-13T01:59:45.138Z,14.40
2018-09-13T02:02:13.421Z,14.20
2018-09-13T02:04:41.872Z,14.20
2018-09-13T02:07:10.152Z,14.10
2018-09-13T02:09:38.437Z,14.10
2018-09-13T02:12:06.792Z,14.00
2018-09-13T02:14:35.152Z,14.10
2018-09-13T02:17:03.421Z,14.00
2018-09-13T02:19:31.724Z,13.90
2018-09-13T02:22:00.009Z,13.90
2018-09-13T02:24:28.292Z,13.80
2018-09-13T02:26:56.628Z,13.80
2018-09-13T02:29:24.908Z,13.60
2018-09-13T02:31:53.257Z,13.60
2018-09-13T02:34:21.586Z,13.50
2018-09-13T02:36:49.988Z,13.50
2018-09-13T02:39:18.270Z,13.50
2018-09-13T02:41:47.572Z,13.50
2018-09-13T02:44:15.864Z,13.50
2018-09-13T02:46:44.388Z,13.50
2018-09-13T02:49:12.816Z,13.50
2018-09-13T02:51:41.166Z,13.50
2018-09-13T02:54:09.692Z,13.60
2018-09-13T02:56:38.070Z,13.70
2018-09-13T02:59:06.355Z,13.70
2018-09-13T03:01:34.628Z,13.80
2018-09-13T03:04:02.945Z,13.80
2018-09-13T03:06:31.228Z,13.80
2018-09-13T03:08:59.512Z,13.90
2018-09-13T03:11:27.829Z,13.90
2018-09-13T03:13:56.108Z,13.90
2018-09-13T03:16:24.398Z,13.80
2018-09-13T03:18:52.881Z,13.80
2018-09-13T03:21:21.165Z,13.80
2018-09-13T03:23:49.461Z,13.70
2018-09-13T03:26:17.843Z,13.60
2018-09-13T03:28:46.320Z,13.50
2018-09-13T03:31:14.672Z,13.40
2018-09-13T03:33:43.204Z,13.50
2018-09-13T03:36:11.490Z,13.50
2018-09-13T03:38:39.801Z,13.50
2018-09-13T03:41:08.435Z,13.40
2018-09-13T03:43:36.792Z,13.50
2018-09-13T03:46:05.083Z,13.60
2018-09-13T03:48:33.407Z,13.40
2018-09-13T03:51:02.133Z,13.40
2018-09-13T03:53:30.405Z,13.30
2018-09-13T03:55:58.720Z,13.20
2018-09-13T03:58:27.061Z,13.20
2018-09-13T04:00:55.631Z,13.20
2018-09-13T04:03:24.025Z,13.20
2018-09-13T04:05:52.388Z,13.30
2018-09-13T04:08:20.725Z,13.40
2018-09-13T04:10:49.476Z,13.40
2018-09-13T04:13:17.773Z,13.40
2018-09-13T04:15:46.245Z,13.50
2018-09-13T04:18:14.653Z,13.50
2018-09-13T04:20:43.160Z,13.50
2018-09-13T04:23:11.549Z,13.60
2018-09-13T04:25:39.953Z,13.50
2018-09-13T04:28:08.246Z,13.50
2018-09-13T04:30:36.636Z,13.50
2018-09-13T04:33:04.978Z,13.40
2018-09-13T04:35:33.290Z,13.40
2018-09-13T04:38:01.657Z,13.40
2018-09-13T04:40:30.396Z,13.40
2018-09-13T04:42:58.732Z,13.50
2018-09-13T04:45:27.093Z,13.50
2018-09-13T04:47:55.612Z,13.50
2018-09-13T04:50:23.900Z,13.50
2018-09-13T04:52:52.201Z,13.40
2018-09-13T04:55:20.540Z,13.30
2018-09-13T04:57:48.940Z,13.30
2018-09-13T05:00:18.278Z,13.30
2018-09-13T05:02:46.839Z,13.40
2018-09-13T05:05:15.191Z,13.40
2018-09-13T05:07:43.975Z,13.40
2018-09-13T05:10:12.307Z,13.40
2018-09-13T05:12:40.714Z,13.50
2018-09-13T05:15:08.988Z,13.50
2018-09-13T05:17:38.133Z,13.60
2018-09-13T05:20:06.690Z,13.70
2018-09-13T05:22:34.979Z,13.70
2018-09-13T05:25:03.532Z,13.70
2018-09-13T05:27:32.104Z,13.70
2018-09-13T05:30:00.472Z,13.50
2018-09-13T05:32:28.820Z,13.50
2018-09-13T05:34:57.156Z,13.50
2018-09-13T05:37:25.445Z,13.50
2018-09-13T05:39:53.757Z,13.50
2018-09-13T05:42:22.037Z,13.50
2018-09-13T05:44:50.509Z,13.50
2018-09-13T05:47:18.928Z,13.50
2018-09-13T05:49:47.296Z,13.50
2018-09-13T05:52:15.686Z,13.40
2018-09-13T05:54:44.224Z,13.40
2018-09-13T05:57:12.524Z,13.50
2018-09-13T05:59:40.860Z,13.40
2018-09-13T06:02:09.205Z,13.50
2018-09-13T06:04:37.496Z,13.50
2018-09-13T06:07:05.808Z,13.50
2018-09-13T06:09:34.236Z,13.50
2018-09-13T06:12:02.524Z,13.60
2018-09-13T06:14:30.812Z,13.60
2018-09-13T06:16:59.136Z,13.80
2018-09-13T06:19:27.416Z,13.80
2018-09-13T06:21:55.752Z,13.80
2018-09-13T06:24:24.076Z,13.90
2018-09-13T06:26:52.460Z,13.90
2018-09-13T06:29:20.754Z,13.90
2018-09-13T06:31:49.109Z,13.90
2018-09-13T06:34:17.403Z,13.80
2018-09-13T06:36:45.824Z,13.70
2018-09-13T06:39:14.148Z,13.70
2018-09-13T06:41:42.502Z,13.70
2018-09-13T06:44:11.202Z,13.80
2018-09-13T06:46:39.769Z,13.80
2018-09-13T06:49:08.268Z,14.00
2018-09-13T06:51:36.741Z,14.10
2018-09-13T06:54:05.450Z,14.20
2018-09-13T06:56:33.692Z,14.20
2018-09-13T06:59:02.086Z,14.30
2018-09-13T07:01:30.489Z,14.30
2018-09-13T07:03:58.976Z,14.40
2018-09-13T07:06:27.335Z,14.30
2018-09-13T07:08:55.897Z,14.30
2018-09-13T07:11:24.145Z,14.30
2018-09-13T07:13:52.580Z,14.40
2018-09-13T07:16:20.917Z,14.50
2018-09-13T07:18:50.228Z,14.60
2018-09-13T07:21:18.536Z,14.60
2018-09-13T07:23:47.260Z,14.60
2018-09-13T07:26:15.551Z,14.60
2018-09-13T07:28:43.864Z,14.60
2018-09-13T07:31:12.273Z,14.50
2018-09-13T07:33:40.565Z,14.60
2018-09-13T07:36:08.992Z,14.70
2018-09-13T07:38:37.309Z,14.80
2018-09-13T07:41:05.674Z,14.80
2018-09-13T07:43:33.969Z,14.90
2018-09-13T07:46:02.760Z,15.10
2018-09-13T07:48:31.324Z,15.20
2018-09-13T07:50:59.776Z,15.30
2018-09-13T07:53:28.206Z,15.30
2018-09-13T07:55:56.640Z,15.40
2018-09-13T07:58:24.962Z,15.40
2018-09-13T08:00:53.443Z,15.50
2018-09-13T08:03:22.028Z,15.60
2018-09-13T08:05:50.500Z,15.80
2018-09-13T08:08:18.867Z,16.10
2018-09-13T08:10:47.169Z,16.20
2018-09-13T08:13:15.457Z,16.40
2018-09-13T08:15:43.931Z,16.60
2018-09-13T08:18:12.240Z,16.70
2018-09-13T08:20:40.608Z,16.80
2018-09-13T08:23:08.859Z,16.70
2018-09-13T08:25:37.110Z,16.70
2018-09-13T08:28:05.506Z,16.50
2018-09-13T08:30:33.806Z,16.40
2018-09-13T08:33:02.473Z,16.40
2018-09-13T08:35:30.718Z,16.50
2018-09-13T08:37:59.166Z,16.50
2018-09-13T08:40:27.459Z,16.50
2018-09-13T08:42:55.956Z,16.40
2018-09-13T08:45:24.286Z,16.30
2018-09-13T08:47:52.807Z,16.40
2018-09-13T08:50:21.078Z,16.80
2018-09-13T08:52:49.371Z,17.10
2018-09-13T08:55:17.692Z,17.30
2018-09-13T08:57:45.883Z,17.70
2018-09-13T09:00:14.470Z,18.10
2018-09-13T09:02:42.746Z,18.50
2018-09-13T09:05:11.011Z,18.50
2018-09-13T09:07:39.906Z,18.40
2018-09-13T09:10:08.254Z,18.40
2018-09-13T09:12:36.511Z,18.20
2018-09-13T09:15:04.944Z,17.90
2018-09-13T09:17:33.210Z,17.90
2018-09-13T09:20:01.463Z,17.90
2018-09-13T09:22:29.815Z,17.70
2018-09-13T09:24:58.090Z,17.60
2018-09-13T09:27:26.888Z,17.50
2018-09-13T09:29:55.345Z,17.30
2018-09-13T09:32:23.743Z,17.20
2018-09-13T09:34:52.092Z,17.30
2018-09-13T09:37:20.343Z,17.50
2018-09-13T09:39:48.618Z,17.60
2018-09-13T09:42:16.892Z,17.80
2018-09-13T09:44:45.146Z,18.00
2018-09-13T09:47:13.411Z,18.20
2018-09-13T09:49:41.670Z,18.20
2018-09-13T09:52:09.962Z,18.40
2018-09-13T09:54:38.210Z,18.60
2018-09-13T09:57:06.466Z,18.70
2018-09-13T09:59:34.754Z,18.60
2018-09-13T10:02:08.382Z,18.60
2018-09-13T10:04:36.695Z,18.50
2018-09-13T10:07:05.003Z,18.50
2018-09-13T10:09:33.298Z,18.50
2018-09-13T10:12:01.585Z,18.60
2018-09-13T10:14:29.843Z,18.60
2018-09-13T10:17:03.651Z,18.60
2018-09-13T10:19:37.339Z,18.70
2018-09-13T10:22:11.135Z,18.80
2018-09-13T10:24:44.900Z,18.80
2018-09-13T10:27:18.641Z,18.80
2018-09-13T10:29:52.242Z,18.80
2018-09-13T10:32:26.859Z,18.70
2018-09-13T10:35:00.840Z,18.80
2018-09-13T10:37:34.678Z,19.00
2018-09-13T10:40:08.274Z,19.10
2018-09-13T10:42:42.088Z,19.10
2018-09-13T10:45:15.868Z,19.20
2018-09-13T10:47:56.489Z,19.20
2018-09-13T10:50:23.982Z,19.20
2018-09-13T10:52:57.818Z,19.30
2018-09-13T10:55:26.813Z,19.20
2018-09-13T10:57:55.231Z,19.00
2018-09-13T11:00:23.566Z,18.90
2018-09-13T11:02:51.835Z,18.90
2018-09-13T11:05:20.191Z,18.90
2018-09-13T11:07:48.516Z,19.00
2018-09-13T11:10:16.787Z,19.20
2018-09-13T11:12:47.567Z,19.30
2018-09-13T11:15:19.458Z,19.40
2018-09-13T11:17:47.767Z,19.30
2018-09-13T11:20:16.520Z,18.80
2018-09-13T11:22:48.175Z,18.50
2018-09-13T11:25:16.570Z,18.50
2018-09-13T11:27:44.842Z,18.80
2018-09-13T11:30:13.133Z,19.10
2018-09-13T11:32:41.441Z,19.20
2018-09-13T11:35:09.739Z,19.30
2018-09-13T11:37:38.034Z,19.40
2018-09-13T11:40:06.867Z,19.50
2018-09-13T11:42:35.099Z,19.50
2018-09-13T11:45:03.585Z,19.70
2018-09-13T11:47:31.890Z,19.80
2018-09-13T11:50:00.243Z,20.00
2018-09-13T11:52:28.563Z,20.20
2018-09-13T11:54:57.017Z,20.20
2018-09-13T11:57:25.343Z,20.10
2018-09-13T11:59:53.627Z,20.20
2018-09-13T12:02:21.979Z,20.10
2018-09-13T12:04:50.260Z,20.10
2018-09-13T12:07:18.522Z,19.70
2018-09-13T12:09:46.819Z,19.90
2018-09-13T12:12:15.094Z,19.80
2018-09-13T12:14:43.359Z,19.70
2018-09-13T12:17:11.750Z,19.70
2018-09-13T12:19:40.100Z,19.80
2018-09-13T12:22:08.674Z,19.70
2018-09-13T12:24:37.016Z,19.70
2018-09-13T12:27:05.516Z,19.50
2018-09-13T12:29:33.796Z,19.50
2018-09-13T12:32:02.240Z,19.40
2018-09-13T12:34:30.511Z,19.40
2018-09-13T12:36:59.023Z,19.50
2018-09-13T12:39:27.406Z,19.60
2018-09-13T12:41:55.724Z,19.40
2018-09-13T12:44:23.994Z,19.50
2018-09-13T12:46:52.311Z,19.70
2018-09-13T12:49:20.946Z,19.80
2018-09-13T12:51:49.230Z,20.00
2018-09-13T12:54:17.562Z,20.20
2018-09-13T12:56:46.027Z,20.10
2018-09-13T12:59:14.246Z,20.00
2018-09-13T13:01:42.581Z,20.20
2018-09-13T13:04:10.913Z,20.10
2018-09-13T13:06:39.188Z,20.20
2018-09-13T13:09:08.518Z,20.10
2018-09-13T13:11:36.831Z,20.10
2018-09-13T13:14:05.415Z,20.10
2018-09-13T13:16:33.835Z,20.00
2018-09-13T13:19:02.467Z,19.90
2018-09-13T13:21:30.743Z,20.00
2018-09-13T13:23:59.659Z,20.00
2018-09-13T13:26:27.922Z,19.80
2018-09-13T13:28:56.174Z,19.50
2018-09-13T13:31:24.481Z,19.10
2018-09-13T13:33:52.758Z,19.00
2018-09-13T13:36:21.177Z,18.90
2018-09-13T13:38:49.430Z,18.70
2018-09-13T13:41:17.726Z,18.50
2018-09-13T13:43:46.168Z,18.70
2018-09-13T13:46:14.806Z,18.80
2018-09-13T13:48:43.091Z,19.10
2018-09-13T13:51:11.502Z,19.20
2018-09-13T13:53:39.783Z,19.00
2018-09-13T13:56:08.266Z,19.00
2018-09-13T13:58:36.550Z,18.90
2018-09-13T14:01:04.975Z,18.70
2018-09-13T14:03:33.227Z,18.60
2018-09-13T14:06:02.182Z,18.70
2018-09-13T14:08:30.466Z,18.80
2018-09-13T14:10:58.855Z,18.80
2018-09-13T14:13:27.431Z,18.80
2018-09-13T14:15:55.715Z,18.70
2018-09-13T14:18:24.002Z,18.60
2018-09-13T14:20:52.391Z,18.70
2018-09-13T14:23:20.637Z,18.60
2018-09-13T14:25:48.902Z,18.70
2018-09-13T14:28:17.163Z,18.80
2018-09-13T14:30:45.447Z,18.60
2018-09-13T14:33:13.702Z,18.20
2018-09-13T14:35:41.970Z,18.00
2018-09-13T14:38:10.256Z,17.60
2018-09-13T14:40:38.514Z,17.50
2018-09-13T14:43:06.916Z,17.30
2018-09-13T14:45:35.227Z,17.50
2018-09-13T14:48:03.521Z,17.60
2018-09-13T14:50:31.795Z,17.60
2018-09-13T14:53:00.102Z,17.50
2018-09-13T14:55:28.531Z,17.40
2018-09-13T14:57:56.786Z,17.30
2018-09-13T15:00:25.056Z,17.40
2018-09-13T15:02:53.334Z,17.20
2018-09-13T15:05:21.606Z,16.80
2018-09-13T15:07:49.938Z,16.70
2018-09-13T15:10:18.190Z,16.70
2018-09-13T15:12:46.492Z,16.70
2018-09-13T15:15:14.867Z,16.70
2018-09-13T15:17:43.122Z,16.70
2018-09-13T15:20:11.386Z,16.70
2018-09-13T15:22:39.662Z,16.60
2018-09-13T15:25:07.939Z,16.60
2018-09-13T15:27:36.191Z,16.70
2018-09-13T15:30:04.630Z,16.70
2018-09-13T15:32:32.878Z,16.60
2018-09-13T15:35:01.146Z,16.60
2018-09-13T15:37:29.434Z,16.60
2018-09-13T15:39:57.738Z,16.70
2018-09-13T15:42:26.006Z,16.70
2018-09-13T15:44:54.298Z,16.60
2018-09-13T15:47:22.555Z,16.60
2018-09-13T15:49:50.847Z,16.50
2018-09-13T15:52:19.158Z,16.40
2018-09-13T15:54:47.427Z,16.30
2018-09-13T15:57:15.683Z,16.20
2018-09-13T15:59:43.959Z,16.20
2018-09-13T16:02:12.215Z,16.10
2018-09-13T16:04:40.511Z,16.00
2018-09-13T16:07:08.850Z,16.00
2018-09-13T16:09:37.118Z,16.00
2018-09-13T16:12:05.573Z,16.00
2018-09-13T16:14:33.841Z,16.00
2018-09-13T16:17:02.090Z,16.10
2018-09-13T16:19:30.348Z,16.00
2018-09-13T16:21:58.642Z,16.10
2018-09-13T16:24:27.194Z,16.20
2018-09-13T16:26:55.446Z,16.20
2018-09-13T16:29:23.731Z,16.20
2018-09-13T16:31:52.009Z,16.10
2018-09-13T16:34:23.094Z,16.00
2018-09-13T16:37:01.910Z,15.90
2018-09-13T16:39:35.527Z,15.80
2018-09-13T16:42:09.679Z,15.80
2018-09-13T16:44:43.414Z,15.90
2018-09-13T16:47:20.523Z,15.90
2018-09-13T16:49:51.702Z,15.90
2018-09-13T16:52:20.000Z,15.90
2018-09-13T16:54:48.255Z,15.90
2018-09-13T16:57:16.554Z,16.00
2018-09-13T16:59:44.870Z,15.90
2018-09-13T17:02:13.164Z,15.80
2018-09-13T17:04:41.566Z,15.70
2018-09-13T17:08:12.719Z,15.80
2018-09-13T17:10:41.108Z,15.80
2018-09-13T17:13:09.743Z,15.80
2018-09-13T17:15:38.759Z,15.70
2018-09-13T17:18:07.158Z,15.70
2018-09-13T17:20:35.532Z,15.70
2018-09-13T17:23:03.887Z,15.70
2018-09-13T17:25:32.198Z,15.70
2018-09-13T17:28:00.454Z,15.70
2018-09-13T17:30:28.782Z,15.70
2018-09-13T17:32:57.055Z,15.60
2018-09-13T17:35:25.444Z,15.50
2018-09-13T17:37:53.835Z,15.50
2018-09-13T17:40:22.102Z,15.60
2018-09-13T17:42:50.378Z,15.60
2018-09-13T17:45:18.771Z,15.60
2018-09-13T17:47:47.028Z,15.60
2018-09-13T17:50:15.384Z,15.50
2018-09-13T17:52:43.644Z,15.50
2018-09-13T17:55:11.927Z,15.60
2018-09-13T17:57:40.192Z,15.60
2018-09-13T18:00:09.763Z,15.70
2018-09-13T18:02:38.035Z,15.70
2018-09-13T18:05:06.718Z,15.60
2018-09-13T18:07:35.012Z,15.50
2018-09-13T18:10:03.294Z,15.40
2018-09-13T18:12:31.596Z,15.40
2018-09-13T18:15:00.073Z,15.30
2018-09-13T18:17:28.540Z,15.30
2018-09-13T18:19:56.819Z,15.40
2018-09-13T18:22:25.124Z,15.20
2018-09-13T18:24:53.409Z,15.20
2018-09-13T18:27:21.663Z,15.20
2018-09-13T18:29:49.967Z,15.20
2018-09-13T18:32:18.255Z,15.20
2018-09-13T18:34:46.514Z,15.20
2018-09-13T18:37:14.835Z,15.20
2018-09-13T18:39:43.103Z,15.30
2018-09-13T18:42:11.380Z,15.30
2018-09-13T18:44:39.670Z,15.20
2018-09-13T18:47:08.091Z,15.10
2018-09-13T18:49:36.367Z,15.10
2018-09-13T18:52:04.816Z,15.00
2018-09-13T18:54:33.127Z,15.00
2018-09-13T18:57:01.415Z,15.00
2018-09-13T18:59:29.761Z,15.10
2018-09-13T19:01:58.234Z,15.10
2018-09-13T19:04:26.536Z,15.10
2018-09-13T19:06:55.098Z,15.00
2018-09-13T19:09:23.368Z,15.10
2018-09-13T19:11:51.641Z,15.10
2018-09-13T19:14:19.939Z,15.10
2018-09-13T19:16:48.208Z,15.10
2018-09-13T19:19:16.490Z,15.10
2018-09-13T19:21:44.796Z,15.10
2018-09-13T19:24:13.163Z,15.10
2018-09-13T19:26:41.350Z,15.00
2018-09-13T19:29:09.681Z,15.10
2018-09-13T19:31:37.939Z,15.10
2018-09-13T19:34:06.232Z,15.10
2018-09-13T19:36:34.575Z,15.00
2018-09-13T19:39:02.890Z,15.00
2018-09-13T19:41:31.158Z,14.90
2018-09-13T19:43:59.545Z,14.90
2018-09-13T19:46:27.858Z,14.90
2018-09-13T19:48:56.131Z,14.90
2018-09-13T19:51:24.432Z,14.90
2018-09-13T19:53:52.718Z,14.90
2018-09-13T19:56:20.995Z,14.90
2018-09-13T19:58:49.270Z,14.80
2018-09-13T20:01:17.558Z,14.80
2018-09-13T20:03:46.078Z,14.80
2018-09-13T20:06:14.398Z,14.80
2018-09-13T20:08:42.664Z,14.90
2018-09-13T20:11:10.952Z,14.90
2018-09-13T20:13:39.247Z,14.90
2018-09-13T20:16:07.519Z,14.90
2018-09-13T20:18:35.859Z,14.90
2018-09-13T20:21:04.122Z,14.90
2018-09-13T20:23:32.406Z,14.90
2018-09-13T20:26:00.768Z,14.90
2018-09-13T20:28:29.131Z,14.90
2018-09-13T20:30:57.324Z,14.90
2018-09-13T20:33:25.941Z,14.90
2018-09-13T20:35:54.221Z,15.00
2018-09-13T20:38:22.520Z,14.90
2018-09-13T20:40:50.830Z,15.00
2018-09-13T20:43:19.123Z,15.00
2018-09-13T20:45:47.423Z,15.00
2018-09-13T20:48:15.726Z,14.90
2018-09-13T20:50:44.026Z,14.90
2018-09-13T20:53:12.345Z,14.80
2018-09-13T20:55:40.631Z,14.70
2018-09-13T20:58:08.942Z,14.70
2018-09-13T21:00:37.212Z,14.80
2018-09-13T21:03:05.473Z,14.80
2018-09-13T21:05:33.766Z,14.70
2018-09-13T21:08:02.138Z,14.80
2018-09-13T21:10:30.407Z,14.70
2018-09-13T21:12:58.705Z,14.70
2018-09-13T21:15:26.966Z,14.70
2018-09-13T21:17:55.290Z,14.60
2018-09-13T21:20:23.870Z,14.60
2018-09-13T21:22:52.139Z,14.60
2018-09-13T21:25:20.493Z,14.60
2018-09-13T21:27:48.779Z,14.60
2018-09-13T21:30:17.138Z,14.60
2018-09-13T21:32:45.486Z,14.50
2018-09-13T21:35:13.771Z,14.50
2018-09-13T21:37:42.212Z,14.60
2018-09-13T21:40:10.510Z,14.50
2018-09-13T21:42:38.821Z,14.50
2018-09-13T21:45:07.149Z,14.40
2018-09-13T21:47:35.547Z,14.40
2018-09-13T21:50:03.975Z,14.40
2018-09-13T21:52:32.230Z,14.50
2018-09-13T21:55:00.516Z,14.50
2018-09-13T21:57:28.930Z,14.60
2018-09-13T21:59:57.210Z,14.60
2018-09-13T22:02:25.671Z,14.60
2018-09-13T22:04:54.123Z,14.70
2018-09-13T22:07:22.607Z,14.70
2018-09-13T22:09:50.878Z,14.70
2018-09-13T22:12:19.260Z,14.70
2018-09-13T22:14:47.616Z,14.70
2018-09-13T22:17:16.178Z,14.60
2018-09-13T22:19:44.475Z,14.60
2018-09-13T22:22:12.757Z,14.60
2018-09-13T22:24:41.070Z,14.60
2018-09-13T22:27:09.383Z,14.60
2018-09-13T22:29:37.674Z,14.60
2018-09-13T22:32:06.015Z,14.60
2018-09-13T22:34:34.294Z,14.70
2018-09-13T22:37:02.555Z,14.60
2018-09-13T22:39:30.833Z,14.60
2018-09-13T22:41:59.123Z,14.60
2018-09-13T22:44:27.542Z,14.50
2018-09-13T22:46:55.846Z,14.60
2018-09-13T22:49:24.247Z,14.60
2018-09-13T22:51:52.511Z,14.70
2018-09-13T22:54:20.925Z,14.70
2018-09-13T22:56:49.220Z,14.80
2018-09-13T22:59:17.693Z,14.70
2018-09-13T23:01:45.967Z,14.60
2018-09-13T23:04:14.275Z,14.60
2018-09-13T23:06:42.639Z,14.50
2018-09-13T23:09:11.936Z,14.50
2018-09-13T23:11:40.567Z,14.50
2018-09-13T23:14:08.938Z,14.60
2018-09-13T23:16:37.210Z,14.60
2018-09-13T23:19:05.602Z,14.50
2018-09-13T23:21:33.922Z,14.50
2018-09-13T23:24:02.191Z,14.60
2018-09-13T23:26:30.723Z,14.50
2018-09-13T23:28:59.402Z,14.50
2018-09-13T23:31:27.774Z,14.50
2018-09-13T23:33:56.245Z,14.50
2018-09-13T23:36:24.803Z,14.40
2018-09-13T23:38:53.079Z,14.40
2018-09-13T23:41:21.746Z,14.40
2018-09-13T23:43:50.253Z,14.30
2018-09-13T23:46:18.821Z,14.20
2018-09-13T23:48:47.112Z,14.20
2018-09-13T23:51:15.377Z,14.20
2018-09-13T23:53:43.652Z,14.10
2018-09-13T23:56:11.958Z,14.20
2018-09-13T23:58:40.239Z,14.20
